Time;durP1;ratioP1;P1;durP2;ratioP2;P2;SDS_P1;SDS_P2;PMS_P1;PMS_P2;Temp;Humidity;BMP_temperature;BMP_pressure;BME280_temperature;BME280_humidity;BME280_pressure;Samples;Min_cycle;Max_cycle;Signal;HPM_P1;HPM_P2
2021/08/03 00:01:10;;;;;;;0.50;0.50;;;24.00;50.20;;;;;;5134459;28;20047;-50
2021/08/03 00:03:38;;;;;;;0.50;0.50;;;24.00;50.30;;;;;;5134315;28;20047;-51
2021/08/03 00:06:09;;;;;;;0.57;0.47;;;24.00;50.30;;;;;;5134885;28;20054;-51
2021/08/03 00:08:38;;;;;;;0.40;0.40;;;24.00;50.30;;;;;;5134345;28;20482;-50
2021/08/03 00:11:05;;;;;;;0.55;0.55;;;24.00;50.40;;;;;;5134844;28;20051;-47
2021/08/03 00:13:34;;;;;;;0.55;0.55;;;24.00;50.30;;;;;;5134158;28;20051;-54
2021/08/03 00:16:03;;;;;;;0.50;0.50;;;23.90;50.30;;;;;;5134278;28;20047;-48
2021/08/03 00:18:29;;;;;;;0.52;0.50;;;23.90;50.30;;;;;;5134374;28;20047;-54
2021/08/03 00:20:56;;;;;;;0.38;0.38;;;24.00;50.40;;;;;;5133824;27;20047;-53
2021/08/03 00:23:22;;;;;;;0.50;0.50;;;23.90;50.30;;;;;;5134170;28;20055;-51
2021/08/03 00:25:53;;;;;;;0.65;0.50;;;23.90;50.30;;;;;;5133989;28;20055;-52
2021/08/03 00:28:20;;;;;;;0.50;0.50;;;23.90;50.30;;;;;;5134251;28;20557;-53
2021/08/03 00:30:47;;;;;;;0.40;0.40;;;23.90;50.30;;;;;;5133950;28;20130;-52
2021/08/03 00:33:13;;;;;;;0.45;0.45;;;23.90;50.30;;;;;;5133950;28;20076;-53
2021/08/03 00:35:39;;;;;;;0.50;0.50;;;23.90;50.30;;;;;;5115327;28;20050;-52
2021/08/03 00:38:06;;;;;;;0.50;0.50;;;23.90;50.30;;;;;;5114962;28;20047;-53
2021/08/03 00:40:40;;;;;;;0.40;0.40;;;23.90;50.40;;;;;;5133867;28;20104;-49
2021/08/03 00:43:06;;;;;;;0.40;0.40;;;23.90;50.40;;;;;;5134046;28;20075;-47
2021/08/03 00:45:34;;;;;;;0.30;0.30;;;23.90;50.40;;;;;;5133741;28;20090;-53
2021/08/03 00:47:59;;;;;;;0.63;0.60;;;23.90;50.40;;;;;;5133435;28;20051;-54
2021/08/03 00:50:25;;;;;;;0.60;0.60;;;23.90;50.40;;;;;;5115308;28;20054;-54
2021/08/03 00:52:51;;;;;;;0.40;0.40;;;23.90;50.40;;;;;;5115157;28;20062;-51
2021/08/03 00:55:17;;;;;;;0.40;0.40;;;23.90;50.40;;;;;;5114702;28;20040;-54
2021/08/03 00:57:49;;;;;;;0.68;0.50;;;23.80;50.40;;;;;;5115632;28;20501;-51
2021/08/03 01:00:16;;;;;;;0.70;0.50;;;23.90;50.40;;;;;;5097724;28;20047;-54
2021/08/03 01:02:42;;;;;;;0.40;0.40;;;23.90;50.40;;;;;;5133601;28;20099;-51
2021/08/03 01:05:08;;;;;;;0.45;0.45;;;23.80;50.40;;;;;;5115583;28;20142;-53
2021/08/03 01:07:43;;;;;;;0.60;0.60;;;23.80;50.40;;;;;;5114949;28;20055;-53
2021/08/03 01:10:25;;;;;;;0.50;0.50;;;23.80;50.40;;;;;;5113369;28;20172;-51
2021/08/03 01:13:01;;;;;;;0.47;0.47;;;23.80;50.50;;;;;;5115581;28;20054;-54
2021/08/03 01:15:54;;;;;;;0.40;0.40;;;23.80;50.50;;;;;;5113412;28;20048;-52
2021/08/03 01:18:43;;;;;;;0.40;0.40;;;23.80;50.50;;;;;;5113956;28;20043;-52
2021/08/03 01:21:43;;;;;;;0.40;0.40;;;23.80;50.50;;;;;;5133167;28;20481;-51
2021/08/03 01:24:15;;;;;;;0.50;0.50;;;23.90;50.50;;;;;;5133087;28;20058;-49
2021/08/03 01:26:53;;;;;;;0.40;0.40;;;23.80;50.50;;;;;;5114341;28;20080;-50
2021/08/03 01:29:22;;;;;;;0.32;0.32;;;23.80;50.50;;;;;;5113106;28;20101;-52
2021/08/03 01:31:56;;;;;;;0.70;0.57;;;23.80;50.50;;;;;;5134446;27;20055;-50
2021/08/03 01:34:26;;;;;;;0.40;0.40;;;23.80;50.50;;;;;;5118834;28;20104;-55
2021/08/03 01:36:56;;;;;;;0.40;0.40;;;23.80;50.50;;;;;;5136719;28;20051;-49
2021/08/03 01:39:42;;;;;;;0.40;0.40;;;23.80;50.60;;;;;;5136404;28;20104;-50
2021/08/03 01:42:10;;;;;;;0.50;0.50;;;23.80;50.60;;;;;;5136637;28;20043;-50
2021/08/03 01:44:41;;;;;;;0.60;0.60;;;23.80;50.60;;;;;;5136522;28;20043;-48
2021/08/03 01:47:09;;;;;;;0.40;0.40;;;23.80;50.60;;;;;;5136637;28;20079;-50
2021/08/03 01:49:40;;;;;;;1.08;0.80;;;23.80;50.60;;;;;;5117875;28;20095;-48
2021/08/03 01:52:10;;;;;;;0.50;0.50;;;23.80;50.60;;;;;;5118611;28;20093;-48
2021/08/03 01:54:37;;;;;;;0.50;0.50;;;23.80;51.10;;;;;;5136412;28;20074;-49
2021/08/03 01:57:04;;;;;;;0.50;0.50;;;23.70;50.60;;;;;;5117907;28;20051;-54
2021/08/03 01:59:33;;;;;;;0.43;0.43;;;23.80;50.60;;;;;;5101292;28;20051;-54
2021/08/03 02:02:01;;;;;;;0.57;0.52;;;23.80;50.70;;;;;;5136678;28;20051;-55
2021/08/03 02:04:30;;;;;;;0.40;0.40;;;23.80;50.60;;;;;;5136563;28;20062;-48
2021/08/03 02:06:56;;;;;;;0.38;0.38;;;23.80;50.60;;;;;;5136104;28;20406;-51
2021/08/03 02:09:25;;;;;;;0.40;0.40;;;23.70;50.60;;;;;;5136038;28;20054;-53
2021/08/03 02:11:53;;;;;;;0.40;0.40;;;23.80;50.70;;;;;;5117804;28;20051;-51
2021/08/03 02:14:21;;;;;;;0.50;0.50;;;23.70;50.70;;;;;;5117752;28;20047;-51
2021/08/03 02:17:09;;;;;;;0.50;0.50;;;23.70;50.70;;;;;;5117822;28;20051;-51
2021/08/03 02:19:46;;;;;;;0.40;0.40;;;23.70;50.70;;;;;;5116839;28;20411;-52
2021/08/03 02:22:12;;;;;;;0.40;0.40;;;23.70;50.70;;;;;;5136046;28;20051;-54
2021/08/03 02:24:49;;;;;;;0.40;0.40;;;23.70;50.70;;;;;;5118137;28;20045;-50
2021/08/03 02:27:20;;;;;;;0.52;0.47;;;23.70;50.70;;;;;;5118048;28;20490;-55
2021/08/03 02:29:46;;;;;;;0.60;0.60;;;23.70;50.70;;;;;;5101073;28;20047;-53
2021/08/03 02:32:23;;;;;;;0.60;0.50;;;23.70;50.80;;;;;;5117649;28;20559;-54
2021/08/03 02:35:04;;;;;;;0.35;0.35;;;23.70;50.70;;;;;;5117254;28;20043;-54
2021/08/03 02:37:31;;;;;;;;;;;23.70;50.80;;;;;;5117627;28;20104;-49
2021/08/03 02:39:59;;;;;;;0.40;0.40;;;23.70;50.80;;;;;;5117570;28;20367;-52
2021/08/03 02:42:25;;;;;;;0.40;0.40;;;23.70;50.80;;;;;;5117159;28;20469;-49
2021/08/03 02:44:56;;;;;;;0.40;0.40;;;23.70;50.80;;;;;;5117625;28;20107;-52
2021/08/03 02:47:27;;;;;;;;;;;23.70;50.80;;;;;;5136338;28;20138;-49
2021/08/03 02:49:53;;;;;;;0.30;0.30;;;23.70;50.90;;;;;;5135599;28;19915;-51
2021/08/03 02:52:21;;;;;;;0.40;0.40;;;23.70;50.80;;;;;;5135801;28;20055;-51
2021/08/03 02:54:55;;;;;;;0.35;0.35;;;23.70;50.90;;;;;;5116821;28;20379;-48
2021/08/03 02:57:23;;;;;;;0.60;0.60;;;23.70;50.90;;;;;;5117131;28;20089;-51
2021/08/03 02:59:54;;;;;;;0.45;0.45;;;23.70;50.80;;;;;;5117538;28;20055;-48
2021/08/03 03:02:21;;;;;;;;;;;23.70;50.90;;;;;;5117390;28;20070;-48
2021/08/03 03:05:00;;;;;;;0.30;0.30;;;23.60;50.80;;;;;;5117135;28;19926;-48
2021/08/03 03:07:33;;;;;;;0.40;0.40;;;23.70;50.90;;;;;;5117162;28;20138;-49
2021/08/03 03:10:03;;;;;;;0.43;0.40;;;23.70;50.90;;;;;;5135898;28;20130;-50
2021/08/03 03:12:33;;;;;;;0.40;0.40;;;23.70;50.90;;;;;;5135431;28;20047;-52
2021/08/03 03:15:02;;;;;;;0.65;0.50;;;23.60;50.90;;;;;;5116731;28;20075;-50
2021/08/03 03:17:33;;;;;;;0.47;0.47;;;23.60;50.90;;;;;;5116662;28;20486;-49
2021/08/03 03:20:03;;;;;;;0.30;0.30;;;23.60;50.90;;;;;;5115005;28;20048;-50
2021/08/03 03:22:33;;;;;;;0.50;0.50;;;23.60;50.90;;;;;;5116507;28;20097;-50
2021/08/03 03:25:00;;;;;;;0.30;0.30;;;23.60;50.90;;;;;;5116699;28;20107;-53
2021/08/03 03:27:27;;;;;;;0.40;0.40;;;23.60;50.90;;;;;;5135444;28;20051;-49
2021/08/03 03:29:54;;;;;;;0.47;0.47;;;23.60;50.90;;;;;;5134843;28;20055;-48
2021/08/03 03:32:21;;;;;;;0.40;0.40;;;23.60;51.00;;;;;;5116403;28;20055;-52
2021/08/03 03:34:49;;;;;;;0.40;0.40;;;23.60;51.00;;;;;;5099487;28;20043;-51
2021/08/03 03:37:16;;;;;;;0.40;0.40;;;23.60;51.00;;;;;;5116390;28;20061;-53
2021/08/03 03:39:43;;;;;;;0.50;0.50;;;23.60;51.00;;;;;;5116089;28;20051;-52
2021/08/03 03:42:09;;;;;;;0.40;0.40;;;23.60;51.00;;;;;;5134733;28;20116;-50
2021/08/03 03:44:40;;;;;;;0.57;0.50;;;23.60;51.00;;;;;;5116221;28;20444;-54
2021/08/03 03:47:16;;;;;;;0.30;0.30;;;23.60;51.00;;;;;;5134716;28;20143;-49
2021/08/03 03:49:45;;;;;;;0.40;0.40;;;23.60;51.00;;;;;;5115699;28;20134;-50
2021/08/03 03:52:12;;;;;;;0.45;0.45;;;23.60;51.00;;;;;;5135038;28;20085;-51
2021/08/03 03:54:40;;;;;;;0.40;0.40;;;23.60;51.00;;;;;;5115368;28;20082;-48
2021/08/03 03:57:10;;;;;;;0.38;0.38;;;23.60;51.00;;;;;;5115994;28;20061;-49
2021/08/03 03:59:37;;;;;;;0.35;0.35;;;23.60;51.00;;;;;;5134277;28;20526;-48
2021/08/03 04:02:08;;;;;;;0.50;0.50;;;23.60;50.90;;;;;;5116087;28;20456;-48
2021/08/03 04:04:37;;;;;;;0.40;0.40;;;23.60;50.90;;;;;;5116207;28;20047;-48
2021/08/03 04:07:03;;;;;;;0.30;0.30;;;23.60;50.90;;;;;;5134554;28;20054;-48
2021/08/03 04:09:28;;;;;;;0.40;0.40;;;23.70;50.90;;;;;;5134224;28;20059;-51
2021/08/03 04:12:03;;;;;;;0.50;0.50;;;23.70;51.30;;;;;;5134890;28;20047;-52
2021/08/03 04:14:31;;;;;;;0.40;0.40;;;23.70;50.80;;;;;;5115628;28;20406;-48
2021/08/03 04:17:07;;;;;;;0.40;0.40;;;23.70;50.70;;;;;;5134480;28;20057;-50
2021/08/03 04:19:33;;;;;;;0.43;0.43;;;23.70;50.70;;;;;;5113816;28;20059;-51
2021/08/03 04:21:59;;;;;;;0.40;0.40;;;23.70;50.70;;;;;;5133972;28;20127;-49
2021/08/03 04:24:24;;;;;;;0.43;0.43;;;23.70;50.70;;;;;;5134357;28;20046;-49
2021/08/03 04:26:51;;;;;;;0.30;0.30;;;23.70;50.80;;;;;;5134100;28;20070;-46
2021/08/03 04:29:17;;;;;;;0.40;0.40;;;23.70;50.80;;;;;;5115852;28;20043;-46
2021/08/03 04:31:42;;;;;;;0.40;0.40;;;23.70;50.80;;;;;;5134531;28;20496;-48
2021/08/03 04:34:08;;;;;;;0.40;0.40;;;23.70;50.80;;;;;;5096765;28;20051;-50
2021/08/03 04:36:35;;;;;;;0.40;0.40;;;23.60;50.80;;;;;;5133640;28;20051;-51
2021/08/03 04:39:01;;;;;;;0.35;0.35;;;23.60;50.80;;;;;;5133720;28;20112;-50
2021/08/03 04:41:28;;;;;;;0.63;0.40;;;23.60;50.80;;;;;;5134052;28;20427;-51
2021/08/03 04:43:53;;;;;;;0.50;0.50;;;23.60;50.80;;;;;;5115235;28;20407;-48
2021/08/03 04:46:19;;;;;;;0.50;0.50;;;23.60;50.90;;;;;;5134010;28;20088;-51
2021/08/03 04:48:45;;;;;;;0.40;0.40;;;23.60;50.90;;;;;;5133921;28;20083;-53
2021/08/03 04:51:10;;;;;;;0.40;0.40;;;23.60;51.50;;;;;;5133608;28;20047;-52
2021/08/03 04:53:36;;;;;;;0.45;0.40;;;23.60;50.90;;;;;;5133637;28;20063;-52
2021/08/03 04:56:01;;;;;;;0.40;0.40;;;23.60;50.90;;;;;;5133758;28;20125;-54
2021/08/03 04:58:27;;;;;;;0.40;0.40;;;23.60;50.90;;;;;;5133345;28;20406;-52
2021/08/03 05:00:52;;;;;;;0.50;0.50;;;23.60;50.90;;;;;;5133345;28;20055;-51
2021/08/03 05:03:19;;;;;;;0.47;0.47;;;23.60;50.90;;;;;;5133341;28;20555;-53
2021/08/03 05:05:44;;;;;;;0.30;0.30;;;23.60;50.90;;;;;;5133447;27;20380;-52
2021/08/03 05:08:10;;;;;;;0.30;0.30;;;23.60;50.90;;;;;;5136693;28;20058;-54
2021/08/03 05:10:36;;;;;;;0.43;0.40;;;23.60;51.00;;;;;;5118560;28;20046;-51
2021/08/03 05:13:02;;;;;;;0.40;0.40;;;23.60;50.90;;;;;;5137636;28;20062;-51
2021/08/03 05:15:28;;;;;;;0.38;0.38;;;23.60;50.90;;;;;;5118639;28;20075;-49
2021/08/03 05:17:54;;;;;;;0.40;0.40;;;23.60;50.90;;;;;;5118370;28;20487;-51
2021/08/03 05:20:20;;;;;;;0.50;0.50;;;23.60;50.90;;;;;;5137143;28;20050;-50
2021/08/03 05:22:46;;;;;;;0.30;0.30;;;23.60;51.40;;;;;;5118503;28;20051;-51
2021/08/03 05:25:12;;;;;;;0.40;0.40;;;23.60;50.90;;;;;;5137431;28;20409;-53
2021/08/03 05:27:39;;;;;;;0.45;0.43;;;23.60;50.90;;;;;;5118261;28;20072;-47
2021/08/03 05:30:06;;;;;;;0.40;0.40;;;23.60;50.90;;;;;;5136658;28;20500;-52
2021/08/03 05:32:31;;;;;;;0.47;0.47;;;23.60;50.90;;;;;;5118153;28;20051;-52
2021/08/03 05:34:57;;;;;;;0.40;0.40;;;23.60;50.90;;;;;;5136887;28;20088;-53
2021/08/03 05:37:22;;;;;;;0.30;0.30;;;23.60;50.90;;;;;;5136523;28;20603;-52
2021/08/03 05:39:48;;;;;;;0.40;0.40;;;23.60;50.80;;;;;;5136530;28;20134;-52
2021/08/03 05:42:13;;;;;;;0.30;0.30;;;23.60;50.80;;;;;;5136557;28;20108;-48
2021/08/03 05:44:39;;;;;;;0.40;0.40;;;23.60;50.80;;;;;;5136271;28;20134;-52
2021/08/03 05:47:05;;;;;;;0.50;0.50;;;23.60;50.90;;;;;;5136845;28;20043;-53
2021/08/03 05:49:30;;;;;;;0.40;0.40;;;23.60;50.90;;;;;;5117822;28;20051;-49
2021/08/03 05:51:56;;;;;;;0.40;0.40;;;23.60;50.80;;;;;;5136450;28;20545;-54
2021/08/03 05:54:23;;;;;;;0.22;0.22;;;23.60;50.80;;;;;;5117930;28;20078;-50
2021/08/03 05:56:49;;;;;;;0.40;0.40;;;23.60;50.80;;;;;;5136267;28;20058;-52
2021/08/03 05:59:15;;;;;;;0.30;0.30;;;23.60;50.80;;;;;;5136189;28;20505;-52
2021/08/03 06:01:40;;;;;;;0.40;0.40;;;23.60;50.80;;;;;;5136065;28;20138;-49
2021/08/03 06:04:06;;;;;;;0.45;0.45;;;23.60;50.80;;;;;;5136123;28;20138;-53
2021/08/03 06:06:42;;;;;;;0.38;0.38;;;23.60;50.80;;;;;;5135888;28;20407;-53
2021/08/03 06:09:12;;;;;;;0.30;0.30;;;23.60;50.80;;;;;;5115706;28;20047;-52
2021/08/03 06:11:44;;;;;;;0.30;0.30;;;23.60;50.80;;;;;;5136288;28;20138;-53
2021/08/03 06:14:11;;;;;;;0.45;0.45;;;23.60;50.70;;;;;;5136561;28;20051;-50
2021/08/03 06:16:37;;;;;;;0.50;0.50;;;23.70;50.80;;;;;;5135778;28;20344;-52
2021/08/03 06:19:05;;;;;;;0.30;0.30;;;23.60;50.60;;;;;;5135450;27;20051;-53
2021/08/03 06:21:31;;;;;;;0.30;0.30;;;23.70;50.70;;;;;;5135799;28;20141;-54
2021/08/03 06:23:57;;;;;;;0.30;0.30;;;23.70;50.60;;;;;;5136070;28;20128;-50
2021/08/03 06:26:23;;;;;;;0.50;0.50;;;23.70;50.60;;;;;;5136240;28;20051;-51
2021/08/03 06:28:51;;;;;;;0.30;0.30;;;23.70;50.60;;;;;;5135780;28;20057;-53
2021/08/03 06:31:17;;;;;;;0.40;0.40;;;23.70;50.50;;;;;;5135783;28;20049;-52
2021/08/03 06:33:46;;;;;;;0.40;0.40;;;23.70;50.50;;;;;;5135700;28;20104;-54
2021/08/03 06:36:12;;;;;;;0.57;0.57;;;23.70;50.50;;;;;;5135611;28;20043;-53
2021/08/03 06:38:38;;;;;;;0.40;0.40;;;23.70;50.50;;;;;;5135635;28;20058;-48
2021/08/03 06:41:07;;;;;;;0.40;0.40;;;23.70;50.50;;;;;;5135335;28;20391;-51
2021/08/03 06:43:35;;;;;;;0.43;0.43;;;23.70;50.40;;;;;;5135657;28;20088;-51
2021/08/03 06:46:09;;;;;;;0.57;0.57;;;23.80;50.50;;;;;;5136236;28;20043;-52
2021/08/03 06:48:50;;;;;;;0.50;0.50;;;23.80;50.50;;;;;;5116065;28;20050;-47
2021/08/03 06:51:17;;;;;;;0.40;0.40;;;23.80;50.40;;;;;;5133315;28;20076;-50
2021/08/03 06:53:45;;;;;;;0.40;0.40;;;23.80;50.40;;;;;;5135423;28;20055;-51
2021/08/03 06:56:16;;;;;;;0.40;0.40;;;23.80;50.30;;;;;;5135253;28;20043;-50
2021/08/03 06:58:57;;;;;;;0.32;0.32;;;23.80;50.30;;;;;;5135607;28;20086;-52
2021/08/03 07:01:47;;;;;;;0.30;0.30;;;23.90;50.30;;;;;;5116212;28;20486;-53
2021/08/03 07:04:19;;;;;;;0.25;0.25;;;23.90;50.20;;;;;;5135032;28;20043;-52
2021/08/03 07:06:49;;;;;;;0.35;0.35;;;23.90;50.20;;;;;;5135102;28;20644;-51
2021/08/03 07:09:15;;;;;;;0.50;0.50;;;23.90;50.10;;;;;;5135181;28;20467;-52
2021/08/03 07:11:42;;;;;;;0.43;0.43;;;24.00;50.10;;;;;;5135045;28;20047;-53
2021/08/03 07:14:08;;;;;;;0.30;0.30;;;24.00;50.00;;;;;;5134891;28;20043;-49
2021/08/03 07:16:34;;;;;;;0.40;0.40;;;24.00;49.90;;;;;;5134705;28;20043;-50
2021/08/03 07:19:01;;;;;;;0.40;0.40;;;24.10;49.90;;;;;;5134732;28;20588;-52
2021/08/03 07:21:27;;;;;;;0.47;0.47;;;24.10;49.80;;;;;;5134819;28;20055;-49
2021/08/03 07:23:57;;;;;;;0.50;0.50;;;24.10;49.70;;;;;;5134916;28;20047;-49
2021/08/03 07:26:24;;;;;;;1.77;0.40;;;24.20;49.60;;;;;;5134777;28;20043;-49
2021/08/03 07:28:50;;;;;;;0.32;0.32;;;24.20;49.60;;;;;;5134156;27;20707;-53
2021/08/03 07:31:16;;;;;;;0.30;0.30;;;24.30;49.40;;;;;;5134683;28;20146;-51
2021/08/03 07:33:41;;;;;;;1.05;0.30;;;24.40;49.40;;;;;;5116317;28;20395;-51
2021/08/03 07:36:07;;;;;;;0.40;0.40;;;24.40;49.20;;;;;;5134902;28;20150;-50
2021/08/03 07:38:33;;;;;;;0.40;0.40;;;24.40;49.20;;;;;;5134416;28;20051;-52
2021/08/03 07:40:58;;;;;;;0.73;0.40;;;24.40;49.10;;;;;;5134736;28;20043;-53
2021/08/03 07:43:24;;;;;;;0.30;0.30;;;24.50;49.00;;;;;;5115837;28;20475;-49
2021/08/03 07:45:49;;;;;;;0.40;0.40;;;24.50;49.00;;;;;;5134596;28;20406;-47
2021/08/03 07:48:15;;;;;;;0.40;0.40;;;24.50;48.90;;;;;;5116010;28;20556;-48
2021/08/03 07:50:41;;;;;;;0.50;0.50;;;24.50;48.80;;;;;;5115797;28;20047;-47
2021/08/03 07:53:07;;;;;;;0.35;0.35;;;24.50;48.80;;;;;;5134469;28;20043;-53
2021/08/03 07:55:33;;;;;;;0.40;0.40;;;24.50;48.80;;;;;;5134919;28;20478;-50
2021/08/03 07:57:58;;;;;;;0.30;0.30;;;24.50;48.80;;;;;;5134825;28;20055;-50
2021/08/03 08:00:24;;;;;;;0.30;0.30;;;24.50;48.70;;;;;;5134545;28;20142;-47
2021/08/03 08:02:50;;;;;;;0.40;0.40;;;24.60;48.70;;;;;;5115662;28;20047;-49
2021/08/03 08:05:15;;;;;;;0.40;0.40;;;24.60;48.70;;;;;;5134256;28;20043;-47
2021/08/03 08:07:41;;;;;;;0.40;0.40;;;24.60;48.70;;;;;;5134064;28;20047;-46
2021/08/03 08:10:07;;;;;;;0.40;0.40;;;24.60;48.70;;;;;;5134058;28;20055;-48
2021/08/03 08:12:33;;;;;;;0.40;0.40;;;24.60;48.60;;;;;;5134080;28;20397;-51
2021/08/03 08:14:58;;;;;;;0.40;0.40;;;24.60;48.70;;;;;;5133947;28;20125;-52
2021/08/03 08:17:24;;;;;;;0.60;0.40;;;24.60;48.70;;;;;;5116012;28;20055;-51
2021/08/03 08:19:50;;;;;;;0.50;0.50;;;24.60;48.80;;;;;;5133973;28;20051;-50
2021/08/03 08:22:16;;;;;;;1.40;0.50;;;24.60;48.70;;;;;;5134543;28;20062;-48
2021/08/03 08:24:41;;;;;;;0.40;0.40;;;24.60;48.70;;;;;;5134080;28;20062;-48
2021/08/03 08:27:07;;;;;;;0.40;0.40;;;24.60;48.70;;;;;;5134378;28;20444;-50
2021/08/03 08:29:33;;;;;;;0.35;0.35;;;24.60;48.60;;;;;;5134008;28;20077;-49
2021/08/03 08:31:58;;;;;;;0.50;0.40;;;24.70;48.60;;;;;;5133865;28;20055;-50
2021/08/03 08:34:24;;;;;;;0.43;0.43;;;24.70;48.60;;;;;;5115491;28;20066;-52
2021/08/03 08:36:51;;;;;;;0.50;0.50;;;24.70;48.60;;;;;;5133827;28;20057;-53
2021/08/03 08:39:17;;;;;;;0.40;0.40;;;24.70;48.50;;;;;;5133599;28;20043;-51
2021/08/03 08:41:44;;;;;;;0.40;0.40;;;24.80;48.50;;;;;;5133585;27;20051;-52
2021/08/03 08:44:10;;;;;;;0.82;0.50;;;24.80;48.40;;;;;;5133423;28;20047;-50
2021/08/03 08:46:37;;;;;;;0.50;0.50;;;24.80;48.30;;;;;;5133826;28;20054;-50
2021/08/03 08:49:05;;;;;;;0.90;0.40;;;24.80;48.20;;;;;;5133274;28;20047;-50
2021/08/03 08:51:31;;;;;;;0.30;0.30;;;24.80;48.20;;;;;;5133651;28;20112;-49
2021/08/03 08:53:58;;;;;;;0.40;0.40;;;24.90;48.20;;;;;;5133566;28;20046;-50
2021/08/03 08:56:24;;;;;;;2.17;0.50;;;24.90;48.20;;;;;;5133550;28;20086;-51
2021/08/03 08:58:49;;;;;;;0.52;0.52;;;24.90;48.00;;;;;;5133837;28;20509;-52
2021/08/03 09:01:15;;;;;;;0.30;0.30;;;25.00;48.00;;;;;;5133967;28;20180;-51
2021/08/03 09:03:41;;;;;;;0.40;0.40;;;25.00;47.90;;;;;;5133993;28;20043;-54
2021/08/03 09:06:06;;;;;;;1.55;0.70;;;25.00;47.90;;;;;;5133407;28;20122;-49
2021/08/03 09:08:44;;;;;;;0.40;0.40;;;25.00;47.80;;;;;;5133405;28;20439;-55
2021/08/03 09:11:16;;;;;;;0.63;0.40;;;25.00;47.80;;;;;;5133349;28;20063;-51
2021/08/03 09:13:56;;;;;;;0.30;0.30;;;25.10;47.70;;;;;;5114976;28;20078;-55
2021/08/03 09:16:24;;;;;;;1.00;0.50;;;25.10;47.70;;;;;;5132929;28;20108;-50
2021/08/03 09:18:53;;;;;;;1.80;0.60;;;25.10;47.60;;;;;;5132930;28;20055;-52
2021/08/03 09:21:29;;;;;;;0.30;0.30;;;25.20;47.60;;;;;;5132784;28;20086;-54
2021/08/03 09:23:59;;;;;;;0.40;0.40;;;25.20;47.50;;;;;;5132818;28;20123;-52
2021/08/03 09:26:49;;;;;;;0.57;0.50;;;25.20;48.00;;;;;;5112705;28;20044;-52
2021/08/03 09:29:17;;;;;;;0.40;0.40;;;25.30;47.40;;;;;;5133071;28;20509;-49
2021/08/03 09:31:57;;;;;;;0.75;0.50;;;25.30;47.40;;;;;;5133141;28;20051;-51
2021/08/03 09:34:24;;;;;;;0.60;0.60;;;25.30;47.30;;;;;;5133316;28;20051;-51
2021/08/03 09:36:56;;;;;;;0.40;0.40;;;25.30;47.20;;;;;;5132909;28;20375;-51
2021/08/03 09:39:43;;;;;;;0.45;0.30;;;25.40;47.20;;;;;;5132901;28;20146;-53
2021/08/03 09:42:18;;;;;;;0.40;0.40;;;25.40;47.10;;;;;;5114903;28;20051;-53
2021/08/03 09:44:50;;;;;;;0.40;0.40;;;25.40;47.00;;;;;;5114567;28;20058;-50
2021/08/03 09:47:16;;;;;;;0.30;0.30;;;25.40;47.00;;;;;;5132961;28;20043;-49
2021/08/03 09:49:46;;;;;;;0.35;0.35;;;25.40;46.90;;;;;;5114149;28;20054;-50
2021/08/03 09:52:14;;;;;;;0.40;0.40;;;25.50;47.00;;;;;;5133186;27;20043;-48
2021/08/03 09:54:40;;;;;;;0.30;0.30;;;25.50;47.00;;;;;;5136362;28;20054;-49
2021/08/03 09:57:24;;;;;;;0.40;0.40;;;25.50;46.90;;;;;;5136273;28;20051;-49
2021/08/03 09:59:52;;;;;;;0.35;0.35;;;25.50;46.90;;;;;;5135891;28;20502;-49
2021/08/03 10:02:25;;;;;;;0.57;0.55;;;25.50;46.90;;;;;;5136471;28;20047;-51
2021/08/03 10:04:53;;;;;;;0.85;0.47;;;25.50;46.80;;;;;;5136330;28;20051;-51
2021/08/03 10:07:19;;;;;;;0.40;0.40;;;25.50;46.70;;;;;;5136254;28;20062;-48
2021/08/03 10:09:48;;;;;;;0.43;0.43;;;25.60;46.80;;;;;;5136124;28;20066;-48
2021/08/03 10:12:15;;;;;;;0.40;0.40;;;25.60;46.70;;;;;;5136410;28;20094;-51
2021/08/03 10:14:40;;;;;;;0.40;0.40;;;25.60;46.70;;;;;;5136061;28;20050;-54
2021/08/03 10:17:12;;;;;;;0.40;0.40;;;25.60;46.70;;;;;;5135932;28;20055;-50
2021/08/03 10:19:38;;;;;;;0.30;0.30;;;25.60;46.70;;;;;;5115883;28;20138;-48
2021/08/03 10:22:30;;;;;;;0.40;0.40;;;25.60;47.10;;;;;;5136196;28;20155;-51
2021/08/03 10:25:04;;;;;;;0.40;0.40;;;25.60;46.60;;;;;;5136145;28;20054;-52
2021/08/03 10:27:51;;;;;;;0.30;0.30;;;25.60;46.60;;;;;;5136283;28;20051;-51
2021/08/03 10:30:28;;;;;;;0.52;0.40;;;25.60;46.60;;;;;;5135806;28;20054;-52
2021/08/03 10:32:59;;;;;;;0.40;0.40;;;25.60;46.60;;;;;;5117517;28;20051;-52
2021/08/03 10:35:38;;;;;;;0.40;0.40;;;25.60;46.60;;;;;;5135793;28;20047;-52
2021/08/03 10:38:07;;;;;;;0.43;0.35;;;25.60;46.60;;;;;;5136064;28;20463;-51
2021/08/03 10:40:44;;;;;;;1.13;0.40;;;25.70;46.60;;;;;;5135996;28;20051;-50
2021/08/03 10:43:14;;;;;;;0.65;0.50;;;25.70;46.60;;;;;;5136290;28;20375;-53
2021/08/03 10:45:41;;;;;;;0.30;0.30;;;25.70;46.50;;;;;;5135645;28;20047;-52
2021/08/03 10:48:06;;;;;;;1.25;0.60;;;25.70;46.50;;;;;;5135232;28;20399;-50
2021/08/03 10:50:33;;;;;;;0.47;0.30;;;25.70;46.50;;;;;;5117385;28;20051;-54
2021/08/03 10:53:04;;;;;;;0.60;0.38;;;25.70;46.40;;;;;;5135497;28;20043;-52
2021/08/03 10:55:58;;;;;;;0.73;0.40;;;25.70;46.40;;;;;;5135665;28;20051;-52
2021/08/03 10:58:26;;;;;;;0.30;0.30;;;25.70;46.40;;;;;;5135332;28;20058;-52
2021/08/03 11:00:56;;;;;;;0.30;0.30;;;25.70;46.40;;;;;;5135291;28;20051;-50
2021/08/03 11:03:30;;;;;;;0.30;0.30;;;25.70;46.40;;;;;;5134638;27;20055;-54
2021/08/03 11:05:57;;;;;;;0.60;0.40;;;25.70;46.40;;;;;;5116500;28;20403;-50
2021/08/03 11:08:34;;;;;;;0.30;0.30;;;25.70;46.30;;;;;;5135165;28;20051;-54
2021/08/03 11:11:06;;;;;;;0.63;0.40;;;25.80;46.30;;;;;;5135244;28;20123;-50
2021/08/03 11:14:04;;;;;;;0.30;0.30;;;25.80;46.30;;;;;;5116751;28;20478;-49
2021/08/03 11:16:30;;;;;;;0.50;0.50;;;25.80;46.40;;;;;;5134537;28;20055;-49
2021/08/03 11:19:06;;;;;;;0.40;0.40;;;25.80;46.30;;;;;;5135059;28;20109;-53
2021/08/03 11:21:38;;;;;;;0.40;0.40;;;25.70;46.30;;;;;;5135167;28;20061;-50
2021/08/03 11:24:09;;;;;;;0.30;0.30;;;25.70;46.30;;;;;;5134686;28;20083;-51
2021/08/03 11:26:37;;;;;;;0.40;0.40;;;25.70;46.30;;;;;;5134516;28;20051;-49
2021/08/03 11:29:13;;;;;;;2.08;0.40;;;25.80;46.40;;;;;;5134765;28;20050;-49
2021/08/03 11:31:48;;;;;;;0.40;0.40;;;25.80;46.40;;;;;;5114522;28;20085;-50
2021/08/03 11:34:36;;;;;;;0.43;0.43;;;25.80;46.40;;;;;;5134762;28;20471;-50
2021/08/03 11:37:03;;;;;;;0.55;0.55;;;25.80;46.30;;;;;;5134080;28;20143;-51
2021/08/03 11:39:37;;;;;;;3.15;0.60;;;25.80;46.30;;;;;;5134605;28;20410;-52
2021/08/03 11:42:03;;;;;;;0.43;0.43;;;25.80;46.30;;;;;;5134970;28;20055;-50
2021/08/03 11:44:30;;;;;;;1.73;0.50;;;25.80;46.20;;;;;;5134694;28;20055;-49
2021/08/03 11:47:09;;;;;;;0.50;0.40;;;25.90;46.20;;;;;;5134646;28;20104;-51
2021/08/03 11:49:40;;;;;;;1.38;0.50;;;25.90;46.20;;;;;;5134264;28;20105;-50
2021/08/03 11:52:12;;;;;;;0.40;0.40;;;25.90;46.10;;;;;;5134530;28;20046;-52
2021/08/03 11:54:39;;;;;;;1.38;0.30;;;25.90;46.10;;;;;;5134478;28;20051;-49
2021/08/03 11:57:24;;;;;;;0.40;0.40;;;25.90;46.10;;;;;;5134711;28;20062;-52
2021/08/03 11:59:57;;;;;;;0.55;0.30;;;25.90;46.10;;;;;;5134204;28;20059;-50
2021/08/03 12:02:23;;;;;;;0.38;0.38;;;25.80;46.10;;;;;;5115818;28;20055;-55
2021/08/03 12:05:05;;;;;;;1.17;0.40;;;25.80;46.10;;;;;;5134371;28;20044;-51
2021/08/03 12:07:31;;;;;;;0.60;0.60;;;25.80;46.20;;;;;;5134315;28;20138;-54
2021/08/03 12:09:56;;;;;;;0.38;0.30;;;25.80;46.20;;;;;;5133997;28;20137;-50
2021/08/03 12:12:22;;;;;;;0.40;0.40;;;25.80;46.20;;;;;;5134165;28;20082;-50
2021/08/03 12:14:48;;;;;;;0.70;0.40;;;25.80;46.30;;;;;;5134290;27;20512;-50
2021/08/03 12:17:26;;;;;;;0.50;0.47;;;25.80;46.30;;;;;;5134009;28;20055;-53
2021/08/03 12:19:52;;;;;;;0.93;0.60;;;25.80;46.30;;;;;;5134102;28;20558;-49
2021/08/03 12:22:28;;;;;;;5.40;0.75;;;25.80;46.40;;;;;;5134145;28;20082;-50
2021/08/03 12:25:01;;;;;;;3.78;0.50;;;25.80;46.40;;;;;;5134103;28;20109;-49
2021/08/03 12:27:35;;;;;;;1.05;0.40;;;25.80;46.50;;;;;;5134393;28;20047;-54
2021/08/03 12:30:01;;;;;;;0.80;0.55;;;25.80;46.40;;;;;;5134037;28;20055;-54
2021/08/03 12:32:41;;;;;;;2.05;0.60;;;25.80;46.40;;;;;;5115713;28;20498;-47
2021/08/03 12:35:13;;;;;;;0.65;0.40;;;25.80;46.40;;;;;;5115363;28;20043;-51
2021/08/03 12:37:40;;;;;;;0.60;0.50;;;25.80;46.50;;;;;;5133978;28;20055;-49
2021/08/03 12:40:27;;;;;;;0.63;0.50;;;25.80;46.40;;;;;;5133732;28;20051;-51
2021/08/03 12:42:53;;;;;;;2.30;0.50;;;25.80;46.50;;;;;;5134104;28;20080;-52
2021/08/03 12:45:20;;;;;;;1.58;0.63;;;25.80;46.40;;;;;;5134115;28;20055;-50
2021/08/03 12:47:53;;;;;;;0.85;0.47;;;25.80;46.40;;;;;;5133496;28;20095;-48
2021/08/03 12:50:19;;;;;;;1.25;0.32;;;25.80;46.50;;;;;;5115157;28;20055;-52
2021/08/03 12:52:50;;;;;;;1.75;0.50;;;25.80;46.40;;;;;;5134135;28;20075;-50
2021/08/03 12:55:51;;;;;;;1.27;0.50;;;25.80;46.40;;;;;;5134109;28;20044;-50
2021/08/03 12:58:41;;;;;;;0.80;0.50;;;25.80;46.40;;;;;;5133272;28;20108;-51
2021/08/03 13:01:18;;;;;;;1.42;0.63;;;25.80;46.50;;;;;;5133539;28;20089;-52